sensor_id;sensor_type;location;lat;lon;timestamp;pressure;altitude;pressure_sealevel;temperature;humidity
51287;BME280;37364;46.974;18.916;2023-06-10T00:02:21;154394.16;;;16.04;100.00
51287;BME280;37364;46.974;18.916;2023-06-10T00:04:55;154407.13;;;16.09;100.00
51287;BME280;37364;46.974;18.916;2023-06-10T00:07:26;154403.22;;;16.07;100.00
51287;BME280;37364;46.974;18.916;2023-06-10T00:09:57;154411.03;;;16.10;100.00
51287;BME280;37364;46.974;18.916;2023-06-10T00:12:32;154391.53;;;16.02;100.00
51287;BME280;37364;46.974;18.916;2023-06-10T00:15:08;154398.00;;;16.05;100.00
51287;BME280;37364;46.974;18.916;2023-06-10T00:17:43;154408.44;;;16.09;100.00
51287;BME280;37364;46.974;18.916;2023-06-10T00:20:16;154411.03;;;16.10;100.00
51287;BME280;37364;46.974;18.916;2023-06-10T00:22:51;154408.44;;;16.09;100.00
51287;BME280;37364;46.974;18.916;2023-06-10T00:25:21;154411.03;;;16.10;100.00
51287;BME280;37364;46.974;18.916;2023-06-10T00:27:53;154398.00;;;16.05;100.00
51287;BME280;37364;46.974;18.916;2023-06-10T00:30:27;154399.34;;;16.06;100.00
51287;BME280;37364;46.974;18.916;2023-06-10T00:33:02;154413.66;;;16.11;100.00
51287;BME280;37364;46.974;18.916;2023-06-10T00:35:34;154409.75;;;16.10;100.00
51287;BME280;37364;46.974;18.916;2023-06-10T00:38:05;154413.66;;;16.11;100.00
51287;BME280;37364;46.974;18.916;2023-06-10T00:40:39;154414.94;;;16.12;100.00
51287;BME280;37364;46.974;18.916;2023-06-10T00:43:10;154427.91;;;16.17;100.00
51287;BME280;37364;46.974;18.916;2023-06-10T00:45:44;154429.25;;;16.17;100.00
51287;BME280;37364;46.974;18.916;2023-06-10T00:48:16;154438.34;;;16.21;100.00
51287;BME280;37364;46.974;18.916;2023-06-10T00:50:47;154438.34;;;16.21;100.00
51287;BME280;37364;46.974;18.916;2023-06-10T00:53:18;154447.41;;;16.25;100.00
51287;BME280;37364;46.974;18.916;2023-06-10T00:55:49;154440.91;;;16.22;100.00
51287;BME280;37364;46.974;18.916;2023-06-10T00:58:21;154438.34;;;16.21;100.00
51287;BME280;37364;46.974;18.916;2023-06-10T01:00:54;154431.81;;;16.18;100.00
51287;BME280;37364;46.974;18.916;2023-06-10T01:03:28;154435.72;;;16.20;100.00
51287;BME280;37364;46.974;18.916;2023-06-10T01:06:05;154444.81;;;16.24;100.00
51287;BME280;37364;46.974;18.916;2023-06-10T01:08:45;154459.13;;;16.29;100.00
51287;BME280;37364;46.974;18.916;2023-06-10T01:11:26;154439.63;;;16.21;100.00
51287;BME280;37364;46.974;18.916;2023-06-10T01:13:59;154446.13;;;16.24;100.00
51287;BME280;37364;46.974;18.916;2023-06-10T01:16:38;154447.41;;;16.25;100.00
51287;BME280;37364;46.974;18.916;2023-06-10T01:19:11;154448.75;;;16.25;100.00
51287;BME280;37364;46.974;18.916;2023-06-10T01:21:47;154437.00;;;16.20;100.00
51287;BME280;37364;46.974;18.916;2023-06-10T01:24:19;154438.34;;;16.21;100.00
51287;BME280;37364;46.974;18.916;2023-06-10T01:26:51;154446.13;;;16.24;100.00
51287;BME280;37364;46.974;18.916;2023-06-10T01:29:28;154460.41;;;16.30;100.00
51287;BME280;37364;46.974;18.916;2023-06-10T01:32:05;154463.03;;;16.31;100.00
51287;BME280;37364;46.974;18.916;2023-06-10T01:34:39;154468.25;;;16.33;100.00
51287;BME280;37364;46.974;18.916;2023-06-10T01:37:18;154478.63;;;16.37;100.00
51287;BME280;37364;46.974;18.916;2023-06-10T01:39:49;154496.78;;;16.44;100.00
51287;BME280;37364;46.974;18.916;2023-06-10T01:42:22;154505.91;;;16.48;100.00
51287;BME280;37364;46.974;18.916;2023-06-10T01:44:54;154509.81;;;16.49;100.00
51287;BME280;37364;46.974;18.916;2023-06-10T01:47:25;154509.81;;;16.49;100.00
51287;BME280;37364;46.974;18.916;2023-06-10T01:49:59;154508.53;;;16.49;100.00
51287;BME280;37364;46.974;18.916;2023-06-10T01:52:33;154503.31;;;16.47;100.00
51287;BME280;37364;46.974;18.916;2023-06-10T01:55:05;154505.91;;;16.48;100.00
51287;BME280;37364;46.974;18.916;2023-06-10T01:57:36;154502.00;;;16.46;100.00
51287;BME280;37364;46.974;18.916;2023-06-10T02:00:09;154513.72;;;16.51;100.00
51287;BME280;37364;46.974;18.916;2023-06-10T02:02:44;154513.72;;;16.51;100.00
51287;BME280;37364;46.974;18.916;2023-06-10T02:05:15;154509.81;;;16.49;100.00
51287;BME280;37364;46.974;18.916;2023-06-10T02:07:49;154518.91;;;16.53;100.00
51287;BME280;37364;46.974;18.916;2023-06-10T02:10:21;154503.31;;;16.47;100.00
51287;BME280;37364;46.974;18.916;2023-06-10T02:12:52;154492.94;;;16.43;100.00
51287;BME280;37364;46.974;18.916;2023-06-10T02:15:24;154491.59;;;16.42;100.00
51287;BME280;37364;46.974;18.916;2023-06-10T02:17:57;154486.41;;;16.40;100.00
51287;BME280;37364;46.974;18.916;2023-06-10T02:20:28;154483.81;;;16.39;100.00
51287;BME280;37364;46.974;18.916;2023-06-10T02:23:02;154491.59;;;16.42;100.00
51287;BME280;37364;46.974;18.916;2023-06-10T02:25:33;154473.44;;;16.35;100.00
51287;BME280;37364;46.974;18.916;2023-06-10T02:28:04;154473.44;;;16.35;100.00
51287;BME280;37364;46.974;18.916;2023-06-10T02:30:36;154465.63;;;16.32;100.00
51287;BME280;37364;46.974;18.916;2023-06-10T02:33:09;154463.03;;;16.31;100.00
51287;BME280;37364;46.974;18.916;2023-06-10T02:35:42;154456.50;;;16.28;100.00
51287;BME280;37364;46.974;18.916;2023-06-10T02:38:16;154437.00;;;16.20;100.00
51287;BME280;37364;46.974;18.916;2023-06-10T02:40:47;154442.19;;;16.23;100.00
51287;BME280;37364;46.974;18.916;2023-06-10T02:43:18;154447.41;;;16.25;100.00
51287;BME280;37364;46.974;18.916;2023-06-10T02:45:49;154431.81;;;16.18;100.00
51287;BME280;37364;46.974;18.916;2023-06-10T02:48:20;154424.03;;;16.15;100.00
51287;BME280;37364;46.974;18.916;2023-06-10T02:50:51;154408.44;;;16.09;100.00
51287;BME280;37364;46.974;18.916;2023-06-10T02:53:35;154408.44;;;16.09;100.00
51287;BME280;37364;46.974;18.916;2023-06-10T02:56:09;154412.31;;;16.11;100.00
51287;BME280;37364;46.974;18.916;2023-06-10T02:58:40;154404.53;;;16.08;100.00
51287;BME280;37364;46.974;18.916;2023-06-10T03:01:13;154409.75;;;16.10;100.00
51287;BME280;37364;46.974;18.916;2023-06-10T03:03:54;154407.13;;;16.09;100.00
51287;BME280;37364;46.974;18.916;2023-06-10T03:06:26;154392.81;;;16.03;100.00
51287;BME280;37364;46.974;18.916;2023-06-10T03:09:10;154396.72;;;16.05;100.00
51287;BME280;37364;46.974;18.916;2023-06-10T03:11:43;154405.84;;;16.08;100.00
51287;BME280;37364;46.974;18.916;2023-06-10T03:14:14;154407.13;;;16.09;100.00
51287;BME280;37364;46.974;18.916;2023-06-10T03:16:45;154412.31;;;16.11;100.00
51287;BME280;37364;46.974;18.916;2023-06-10T03:19:16;154420.13;;;16.14;100.00
51287;BME280;37364;46.974;18.916;2023-06-10T03:21:57;154426.63;;;16.16;100.00
51287;BME280;37364;46.974;18.916;2023-06-10T03:24:32;154426.63;;;16.16;100.00
51287;BME280;37364;46.974;18.916;2023-06-10T03:27:06;154425.31;;;16.16;100.00
51287;BME280;37364;46.974;18.916;2023-06-10T03:29:39;154434.44;;;16.19;100.00
51287;BME280;37364;46.974;18.916;2023-06-10T03:32:10;154408.44;;;16.09;100.00
51287;BME280;37364;46.974;18.916;2023-06-10T03:34:41;154408.44;;;16.09;100.00
51287;BME280;37364;46.974;18.916;2023-06-10T03:37:13;154403.22;;;16.07;100.00
51287;BME280;37364;46.974;18.916;2023-06-10T03:39:49;154405.84;;;16.08;100.00
51287;BME280;37364;46.974;18.916;2023-06-10T03:42:20;154412.31;;;16.11;100.00
51287;BME280;37364;46.974;18.916;2023-06-10T03:44:52;154426.63;;;16.16;100.00
51287;BME280;37364;46.974;18.916;2023-06-10T03:47:24;154416.22;;;16.12;100.00
51287;BME280;37364;46.974;18.916;2023-06-10T03:49:55;154420.13;;;16.14;100.00
51287;BME280;37364;46.974;18.916;2023-06-10T03:52:26;154421.41;;;16.14;100.00
51287;BME280;37364;46.974;18.916;2023-06-10T03:55:01;154438.34;;;16.21;100.00
51287;BME280;37364;46.974;18.916;2023-06-10T03:57:33;154418.84;;;16.13;100.00
51287;BME280;37364;46.974;18.916;2023-06-10T04:00:05;154394.16;;;16.04;100.00
51287;BME280;37364;46.974;18.916;2023-06-10T04:02:42;154404.53;;;16.08;100.00
51287;BME280;37364;46.974;18.916;2023-06-10T04:05:35;154412.31;;;16.11;100.00
51287;BME280;37364;46.974;18.916;2023-06-10T04:08:05;154385.06;;;16.00;100.00
51287;BME280;37364;46.974;18.916;2023-06-10T04:10:39;154409.75;;;16.10;100.00
51287;BME280;37364;46.974;18.916;2023-06-10T04:13:10;154400.63;;;16.06;100.00
51287;BME280;37364;46.974;18.916;2023-06-10T04:15:50;154408.44;;;16.09;100.00
51287;BME280;37364;46.974;18.916;2023-06-10T04:18:21;154409.75;;;16.10;100.00
51287;BME280;37364;46.974;18.916;2023-06-10T04:20:56;154433.09;;;16.19;100.00
51287;BME280;37364;46.974;18.916;2023-06-10T04:23:28;154438.34;;;16.21;100.00
51287;BME280;37364;46.974;18.916;2023-06-10T04:26:02;154407.13;;;16.09;100.00
51287;BME280;37364;46.974;18.916;2023-06-10T04:28:33;154434.44;;;16.19;100.00
51287;BME280;37364;46.974;18.916;2023-06-10T04:31:04;154476.00;;;16.36;100.00
51287;BME280;37364;46.974;18.916;2023-06-10T04:33:36;154533.22;;;16.58;100.00
51287;BME280;37364;46.974;18.916;2023-06-10T04:36:07;154628.19;;;16.96;100.00
51287;BME280;37364;46.974;18.916;2023-06-10T04:38:38;154630.75;;;16.97;100.00
51287;BME280;37364;46.974;18.916;2023-06-10T04:41:13;154602.19;;;16.86;100.00
51287;BME280;37364;46.974;18.916;2023-06-10T04:43:44;154612.59;;;16.90;100.00
51287;BME280;37364;46.974;18.916;2023-06-10T04:46:15;154608.69;;;16.88;100.00
51287;BME280;37364;46.974;18.916;2023-06-10T04:48:46;154643.78;;;17.02;100.00
51287;BME280;37364;46.974;18.916;2023-06-10T04:51:19;154671.06;;;17.13;100.00
51287;BME280;37364;46.974;18.916;2023-06-10T04:53:49;154647.69;;;17.04;100.00
51287;BME280;37364;46.974;18.916;2023-06-10T04:56:24;154638.59;;;17.00;100.00
51287;BME280;37364;46.974;18.916;2023-06-10T04:58:56;154651.56;;;17.05;100.00
51287;BME280;37364;46.974;18.916;2023-06-10T05:01:27;154650.28;;;17.05;100.00
51287;BME280;37364;46.974;18.916;2023-06-10T05:03:58;154694.50;;;17.22;100.00
51287;BME280;37364;46.974;18.916;2023-06-10T05:06:29;154727.03;;;17.35;100.00
51287;BME280;37364;46.974;18.916;2023-06-10T05:09:00;154706.19;;;17.27;100.00
51287;BME280;37364;46.974;18.916;2023-06-10T05:11:33;154686.72;;;17.19;100.00
51287;BME280;37364;46.974;18.916;2023-06-10T05:14:04;154700.97;;;17.25;100.00
51287;BME280;37364;46.974;18.916;2023-06-10T05:16:34;154728.31;;;17.35;100.00
51287;BME280;37364;46.974;18.916;2023-06-10T05:19:06;154742.63;;;17.41;100.00
51287;BME280;37364;46.974;18.916;2023-06-10T05:21:37;154727.03;;;17.35;100.00
51287;BME280;37364;46.974;18.916;2023-06-10T05:24:08;154662.00;;;17.09;100.00
51287;BME280;37364;46.974;18.916;2023-06-10T05:26:41;154684.09;;;17.18;100.00
51287;BME280;37364;46.974;18.916;2023-06-10T05:29:12;154734.81;;;17.38;100.00
51287;BME280;37364;46.974;18.916;2023-06-10T05:31:42;154710.09;;;17.28;100.00
51287;BME280;37364;46.974;18.916;2023-06-10T05:34:13;154762.13;;;17.49;100.00
51287;BME280;37364;46.974;18.916;2023-06-10T05:36:44;154745.19;;;17.42;100.00
51287;BME280;37364;46.974;18.916;2023-06-10T05:39:14;154754.31;;;17.46;100.00
51287;BME280;37364;46.974;18.916;2023-06-10T05:41:47;154811.56;;;17.68;100.00
51287;BME280;37364;46.974;18.916;2023-06-10T05:44:18;154864.94;;;17.89;100.00
51287;BME280;37364;46.974;18.916;2023-06-10T05:46:48;154861.06;;;17.88;100.00
51287;BME280;37364;46.974;18.916;2023-06-10T05:49:19;154850.63;;;17.84;100.00
51287;BME280;37364;46.974;18.916;2023-06-10T05:51:50;154883.16;;;17.96;100.00
51287;BME280;37364;46.974;18.916;2023-06-10T05:54:20;154905.25;;;18.05;100.00
51287;BME280;37364;46.974;18.916;2023-06-10T05:56:58;154897.47;;;18.02;100.00
51287;BME280;37364;46.974;18.916;2023-06-10T05:59:28;154861.06;;;17.88;100.00
51287;BME280;37364;46.974;18.916;2023-06-10T06:01:59;154998.97;;;18.42;100.00
51287;BME280;37364;46.974;18.916;2023-06-10T06:04:30;155058.84;;;18.66;100.00
51287;BME280;37364;46.974;18.916;2023-06-10T06:07:01;155164.38;;;19.07;100.00
51287;BME280;37364;46.974;18.916;2023-06-10T06:09:33;155284.19;;;19.54;100.00
51287;BME280;37364;46.974;18.916;2023-06-10T06:12:07;155367.56;;;19.87;100.00
51287;BME280;37364;46.974;18.916;2023-06-10T06:14:38;155301.09;;;19.61;100.00
51287;BME280;37364;46.974;18.916;2023-06-10T06:17:09;155255.53;;;19.43;100.00
51287;BME280;37364;46.974;18.916;2023-06-10T06:19:40;155308.94;;;19.64;100.00
51287;BME280;37364;46.974;18.916;2023-06-10T06:22:13;155370.19;;;19.88;100.00
51287;BME280;37364;46.974;18.916;2023-06-10T06:24:47;155394.94;;;19.98;100.00
51287;BME280;37364;46.974;18.916;2023-06-10T06:27:21;155392.31;;;19.97;100.00
51287;BME280;37364;46.974;18.916;2023-06-10T06:29:56;155574.81;;;20.69;100.00
51287;BME280;37364;46.974;18.916;2023-06-10T06:32:28;155479.63;;;20.31;100.00
51287;BME280;37364;46.974;18.916;2023-06-10T06:34:59;155641.28;;;20.95;100.00
51287;BME280;37364;46.974;18.916;2023-06-10T06:37:30;155431.41;;;20.12;100.00
51287;BME280;37364;46.974;18.916;2023-06-10T06:40:14;155555.25;;;20.61;100.00
51287;BME280;37364;46.974;18.916;2023-06-10T06:42:48;155638.69;;;20.94;100.00
51287;BME280;37364;46.974;18.916;2023-06-10T06:45:29;155607.41;;;20.82;100.00
51287;BME280;37364;46.974;18.916;2023-06-10T06:48:01;155744.28;;;21.36;100.00
51287;BME280;37364;46.974;18.916;2023-06-10T06:50:32;155773.03;;;21.47;100.00
51287;BME280;37364;46.974;18.916;2023-06-10T06:53:03;155501.78;;;20.40;100.00
51287;BME280;37364;46.974;18.916;2023-06-10T06:55:34;155675.19;;;21.08;100.00
51287;BME280;37364;46.974;18.916;2023-06-10T06:58:09;155713.00;;;21.23;100.00
51287;BME280;37364;46.974;18.916;2023-06-10T07:00:40;155844.72;;;21.75;100.00
51287;BME280;37364;46.974;18.916;2023-06-10T07:03:13;155980.44;;;22.28;100.00
51287;BME280;37364;46.974;18.916;2023-06-10T07:08:15;155980.44;;;22.28;100.00
51287;BME280;37364;46.974;18.916;2023-06-10T07:10:46;155863.00;;;21.82;100.00
51287;BME280;37364;46.974;18.916;2023-06-10T07:13:21;156164.41;;;23.01;100.00
51287;BME280;37364;46.974;18.916;2023-06-10T07:15:52;155911.28;;;22.01;100.00
51287;BME280;37364;46.974;18.916;2023-06-10T07:18:23;155836.94;;;21.72;100.00
51287;BME280;37364;46.974;18.916;2023-06-10T07:20:53;155855.16;;;21.79;100.00
51287;BME280;37364;46.974;18.916;2023-06-10T07:23:24;155932.16;;;22.09;100.00
51287;BME280;37364;46.974;18.916;2023-06-10T07:25:55;156167.06;;;23.02;100.00
51287;BME280;37364;46.974;18.916;2023-06-10T07:28:29;156210.16;;;23.19;100.00
51287;BME280;37364;46.974;18.916;2023-06-10T07:31:00;156378.63;;;23.85;100.00
51287;BME280;37364;46.974;18.916;2023-06-10T07:33:34;156310.69;;;23.58;100.00
51287;BME280;37364;46.974;18.916;2023-06-10T07:36:07;156310.69;;;23.58;100.00
51287;BME280;37364;46.974;18.916;2023-06-10T07:38:37;156410.00;;;23.97;100.00
51287;BME280;37364;46.974;18.916;2023-06-10T07:41:10;156377.31;;;23.84;100.00
51287;BME280;37364;46.974;18.916;2023-06-10T07:43:59;156454.34;;;24.15;100.00
51287;BME280;37364;46.974;18.916;2023-06-10T07:46:30;155936.06;;;22.11;100.00
51287;BME280;37364;46.974;18.916;2023-06-10T07:49:01;155994.78;;;22.34;100.00
51287;BME280;37364;46.974;18.916;2023-06-10T07:51:32;155962.16;;;22.21;100.00
51287;BME280;37364;46.974;18.916;2023-06-10T07:54:04;155932.16;;;22.09;100.00
51287;BME280;37364;46.974;18.916;2023-06-10T07:56:35;155684.31;;;21.12;100.00
51287;BME280;37364;46.974;18.916;2023-06-10T07:59:09;155835.59;;;21.71;100.00
51287;BME280;37364;46.974;18.916;2023-06-10T08:01:41;156024.78;;;22.46;100.00
51287;BME280;37364;46.974;18.916;2023-06-10T08:04:12;156214.06;;;23.20;100.00
51287;BME280;37364;46.974;18.916;2023-06-10T08:06:43;156321.13;;;23.62;100.00
51287;BME280;37364;46.974;18.916;2023-06-10T08:09:14;156155.28;;;22.97;100.00
51287;BME280;37364;46.974;18.916;2023-06-10T08:11:46;156148.75;;;22.95;100.00
51287;BME280;37364;46.974;18.916;2023-06-10T08:14:20;156157.91;;;22.98;100.00
51287;BME280;37364;46.974;18.916;2023-06-10T08:16:52;156181.47;;;23.07;100.00
51287;BME280;37364;46.974;18.916;2023-06-10T08:19:23;156237.56;;;23.29;100.00
51287;BME280;37364;46.974;18.916;2023-06-10T08:21:55;156331.59;;;23.66;100.00
51287;BME280;37364;46.974;18.916;2023-06-10T08:24:46;156443.91;;;24.11;100.00
51287;BME280;37364;46.974;18.916;2023-06-10T08:27:17;156613.75;;;24.77;100.00
51287;BME280;37364;46.974;18.916;2023-06-10T08:29:59;156440.03;;;24.09;100.00
51287;BME280;37364;46.974;18.916;2023-06-10T08:32:30;156642.50;;;24.89;100.00
51287;BME280;37364;46.974;18.916;2023-06-10T08:35:02;156577.19;;;24.63;100.00
51287;BME280;37364;46.974;18.916;2023-06-10T08:37:36;156395.63;;;23.92;100.00
51287;BME280;37364;46.974;18.916;2023-06-10T08:40:09;156454.34;;;24.15;100.00
51287;BME280;37364;46.974;18.916;2023-06-10T08:42:43;156331.59;;;23.66;100.00
51287;BME280;37364;46.974;18.916;2023-06-10T08:45:35;156216.72;;;23.21;100.00
51287;BME280;37364;46.974;18.916;2023-06-10T08:48:08;156458.28;;;24.16;100.00
51287;BME280;37364;46.974;18.916;2023-06-10T08:50:41;156490.94;;;24.29;100.00
51287;BME280;37364;46.974;18.916;2023-06-10T08:53:18;156515.78;;;24.39;100.00
51287;BME280;37364;46.974;18.916;2023-06-10T08:55:51;156488.31;;;24.28;100.00
51287;BME280;37364;46.974;18.916;2023-06-10T08:58:22;156339.38;;;23.69;100.00
51287;BME280;37364;46.974;18.916;2023-06-10T09:00:57;156330.28;;;23.66;100.00
51287;BME280;37364;46.974;18.916;2023-06-10T09:03:31;156467.44;;;24.20;100.00
51287;BME280;37364;46.974;18.916;2023-06-10T09:06:04;156519.66;;;24.40;100.00
51287;BME280;37364;46.974;18.916;2023-06-10T09:08:35;156376.03;;;23.84;100.00
51287;BME280;37364;46.974;18.916;2023-06-10T09:11:07;156557.59;;;24.55;100.00
51287;BME280;37364;46.974;18.916;2023-06-10T09:13:38;156645.16;;;24.90;100.00
51287;BME280;37364;46.974;18.916;2023-06-10T09:16:13;156502.69;;;24.34;100.00
51287;BME280;37364;46.974;18.916;2023-06-10T09:18:48;156459.56;;;24.17;100.00
51287;BME280;37364;46.974;18.916;2023-06-10T09:21:22;156531.44;;;24.45;100.00
51287;BME280;37364;46.974;18.916;2023-06-10T09:23:53;156547.16;;;24.51;100.00
51287;BME280;37364;46.974;18.916;2023-06-10T09:26:28;156483.09;;;24.26;100.00
51287;BME280;37364;46.974;18.916;2023-06-10T09:29:05;156420.44;;;24.01;100.00
51287;BME280;37364;46.974;18.916;2023-06-10T09:31:41;156430.88;;;24.05;100.00
51287;BME280;37364;46.974;18.916;2023-06-10T09:34:13;156323.72;;;23.63;100.00
51287;BME280;37364;46.974;18.916;2023-06-10T09:36:46;156250.66;;;23.35;100.00
51287;BME280;37364;46.974;18.916;2023-06-10T09:39:19;156126.59;;;22.86;100.00
51287;BME280;37364;46.974;18.916;2023-06-10T09:41:55;156030.00;;;22.48;100.00
51287;BME280;37364;46.974;18.916;2023-06-10T09:44:27;156161.84;;;23.00;100.00
51287;BME280;37364;46.974;18.916;2023-06-10T09:47:03;156438.69;;;24.08;100.00
51287;BME280;37364;46.974;18.916;2023-06-10T09:49:37;156496.19;;;24.31;100.00
51287;BME280;37364;46.974;18.916;2023-06-10T09:52:09;156747.09;;;25.30;100.00
51287;BME280;37364;46.974;18.916;2023-06-10T09:54:44;156726.16;;;25.21;100.00
51287;BME280;37364;46.974;18.916;2023-06-10T09:57:17;156719.63;;;25.19;100.00
51287;BME280;37364;46.974;18.916;2023-06-10T09:59:48;156705.25;;;25.13;100.00
51287;BME280;37364;46.974;18.916;2023-06-10T10:02:26;156514.44;;;24.38;100.00
51287;BME280;37364;46.974;18.916;2023-06-10T10:05:02;156523.56;;;24.42;100.00
51287;BME280;37364;46.974;18.916;2023-06-10T10:07:35;156608.53;;;24.75;100.00
51287;BME280;37364;46.974;18.916;2023-06-10T10:10:11;156744.50;;;25.29;100.00
51287;BME280;37364;46.974;18.916;2023-06-10T10:12:43;156702.63;;;25.12;100.00
51287;BME280;37364;46.974;18.916;2023-06-10T10:15:21;156800.69;;;25.51;100.00
51287;BME280;37364;46.974;18.916;2023-06-10T10:18:03;156796.78;;;25.49;100.00
51287;BME280;37364;46.974;18.916;2023-06-10T10:20:41;156735.34;;;25.25;100.00
51287;BME280;37364;46.974;18.916;2023-06-10T10:23:21;156477.88;;;24.24;100.00
51287;BME280;37364;46.974;18.916;2023-06-10T10:25:57;156441.31;;;24.10;100.00
51287;BME280;37364;46.974;18.916;2023-06-10T10:28:40;156613.75;;;24.77;100.00
51287;BME280;37364;46.974;18.916;2023-06-10T10:31:16;156634.69;;;24.85;100.00
51287;BME280;37364;46.974;18.916;2023-06-10T10:33:55;156591.56;;;24.69;100.00
51287;BME280;37364;46.974;18.916;2023-06-10T10:36:29;156596.81;;;24.71;100.00
51287;BME280;37364;46.974;18.916;2023-06-10T10:39:01;156711.78;;;25.16;100.00
51287;BME280;37364;46.974;18.916;2023-06-10T10:41:33;156607.25;;;24.75;100.00
51287;BME280;37364;46.974;18.916;2023-06-10T10:44:06;156603.31;;;24.73;100.00
51287;BME280;37364;46.974;18.916;2023-06-10T10:46:43;156383.84;;;23.87;100.00
51287;BME280;37364;46.974;18.916;2023-06-10T10:49:19;156609.88;;;24.76;100.00
51287;BME280;37364;46.974;18.916;2023-06-10T10:51:57;156481.81;;;24.25;100.00
51287;BME280;37364;46.974;18.916;2023-06-10T10:54:29;156479.16;;;24.24;100.00
51287;BME280;37364;46.974;18.916;2023-06-10T10:57:11;156442.63;;;24.10;100.00
51287;BME280;37364;46.974;18.916;2023-06-10T10:59:51;156560.25;;;24.56;100.00
51287;BME280;37364;46.974;18.916;2023-06-10T11:02:34;156714.34;;;25.17;100.00
51287;BME280;37364;46.974;18.916;2023-06-10T11:05:12;156764.06;;;25.36;100.00
51287;BME280;37364;46.974;18.916;2023-06-10T11:07:52;156842.50;;;25.67;100.00
51287;BME280;37364;46.974;18.916;2023-06-10T11:10:29;156676.50;;;25.02;100.00
51287;BME280;37364;46.974;18.916;2023-06-10T11:13:06;156611.16;;;24.76;100.00
51287;BME280;37364;46.974;18.916;2023-06-10T11:15:44;156382.53;;;23.86;100.00
51287;BME280;37364;46.974;18.916;2023-06-10T11:18:25;156219.28;;;23.22;100.00
51287;BME280;37364;46.974;18.916;2023-06-10T11:21:00;156174.91;;;23.05;100.00
51287;BME280;37364;46.974;18.916;2023-06-10T11:23:39;156234.94;;;23.28;100.00
51287;BME280;37364;46.974;18.916;2023-06-10T11:26:30;156080.94;;;22.68;100.00
51287;BME280;37364;46.974;18.916;2023-06-10T11:29:08;156071.78;;;22.64;100.00
51287;BME280;37364;46.974;18.916;2023-06-10T11:31:43;156092.66;;;22.73;100.00
51287;BME280;37364;46.974;18.916;2023-06-10T11:34:15;156080.94;;;22.68;100.00
51287;BME280;37364;46.974;18.916;2023-06-10T11:36:55;156080.94;;;22.68;100.00
51287;BME280;37364;46.974;18.916;2023-06-10T11:39:27;156045.66;;;22.54;100.00
51287;BME280;37364;46.974;18.916;2023-06-10T11:42:00;156091.38;;;22.72;100.00
51287;BME280;37364;46.974;18.916;2023-06-10T11:44:33;156143.53;;;22.93;100.00
51287;BME280;37364;46.974;18.916;2023-06-10T11:47:06;156184.06;;;23.08;100.00
51287;BME280;37364;46.974;18.916;2023-06-10T11:49:43;156438.69;;;24.08;100.00
51287;BME280;37364;46.974;18.916;2023-06-10T11:52:26;156349.81;;;23.74;100.00
51287;BME280;37364;46.974;18.916;2023-06-10T11:54:59;156443.91;;;24.11;100.00
51287;BME280;37364;46.974;18.916;2023-06-10T11:57:34;156263.69;;;23.40;100.00
51287;BME280;37364;46.974;18.916;2023-06-10T12:00:06;156578.50;;;24.63;100.00
51287;BME280;37364;46.974;18.916;2023-06-10T12:02:38;156541.88;;;24.49;100.00
51287;BME280;37364;46.974;18.916;2023-06-10T12:05:11;156715.72;;;25.17;100.00
51287;BME280;37364;46.974;18.916;2023-06-10T12:07:45;156582.41;;;24.65;100.00
51287;BME280;37364;46.974;18.916;2023-06-10T12:10:16;156323.72;;;23.63;100.00
51287;BME280;37364;46.974;18.916;2023-06-10T12:12:54;156373.41;;;23.83;100.00
51287;BME280;37364;46.974;18.916;2023-06-10T12:15:27;156443.91;;;24.11;100.00
51287;BME280;37364;46.974;18.916;2023-06-10T12:17:58;156326.38;;;23.64;100.00
51287;BME280;37364;46.974;18.916;2023-06-10T12:20:30;156289.78;;;23.50;100.00
51287;BME280;37364;46.974;18.916;2023-06-10T12:23:11;156402.13;;;23.94;100.00
51287;BME280;37364;46.974;18.916;2023-06-10T12:25:50;156370.81;;;23.82;100.00
51287;BME280;37364;46.974;18.916;2023-06-10T12:28:22;156426.94;;;24.04;100.00
51287;BME280;37364;46.974;18.916;2023-06-10T12:31:08;156314.59;;;23.60;100.00
51287;BME280;37364;46.974;18.916;2023-06-10T12:33:39;156285.91;;;23.48;100.00
51287;BME280;37364;46.974;18.916;2023-06-10T12:36:16;156231.06;;;23.27;100.00
51287;BME280;37364;46.974;18.916;2023-06-10T12:38:52;156379.91;;;23.85;100.00
51287;BME280;37364;46.974;18.916;2023-06-10T12:41:25;156357.69;;;23.77;100.00
51287;BME280;37364;46.974;18.916;2023-06-10T12:43:57;156276.75;;;23.45;100.00
51287;BME280;37364;46.974;18.916;2023-06-10T12:46:36;156292.41;;;23.51;100.00
51287;BME280;37364;46.974;18.916;2023-06-10T12:49:07;156441.31;;;24.10;100.00
51287;BME280;37364;46.974;18.916;2023-06-10T12:51:39;156437.41;;;24.08;100.00
51287;BME280;37364;46.974;18.916;2023-06-10T12:54:13;156420.44;;;24.01;100.00
51287;BME280;37364;46.974;18.916;2023-06-10T12:56:44;156625.56;;;24.82;100.00
51287;BME280;37364;46.974;18.916;2023-06-10T12:59:15;156581.13;;;24.64;100.00
51287;BME280;37364;46.974;18.916;2023-06-10T13:01:50;156592.88;;;24.69;100.00
51287;BME280;37364;46.974;18.916;2023-06-10T13:04:22;156718.28;;;25.18;100.00
51287;BME280;37364;46.974;18.916;2023-06-10T13:06:59;156535.38;;;24.46;100.00